createdAt,value
2019-01-26T00:00:37.367Z,27.50
2019-01-26T00:06:21.007Z,31.73
2019-01-26T00:08:52.598Z,27.15
2019-01-26T00:11:23.703Z,25.10
2019-01-26T00:13:54.885Z,23.47
2019-01-26T00:16:25.962Z,23.37
2019-01-26T00:18:57.059Z,25.23
2019-01-26T00:21:28.198Z,23.70
2019-01-26T00:23:59.306Z,25.30
2019-01-26T00:26:30.791Z,22.80
2019-01-26T00:29:01.943Z,22.32
2019-01-26T00:31:33.018Z,23.13
2019-01-26T00:34:04.138Z,22.43
2019-01-26T00:36:35.394Z,21.20
2019-01-26T00:39:09.744Z,21.10
2019-01-26T00:41:41.122Z,22.67
2019-01-26T00:44:12.975Z,22.32
2019-01-26T00:46:44.418Z,22.97
2019-01-26T00:49:15.535Z,21.33
2019-01-26T00:51:46.661Z,21.13
2019-01-26T00:54:18.241Z,20.73
2019-01-26T00:56:49.376Z,20.53
2019-01-26T00:59:20.844Z,21.57
2019-01-26T01:01:51.972Z,20.53
2019-01-26T01:04:23.433Z,20.27
2019-01-26T01:06:54.897Z,23.30
2019-01-26T01:09:26.038Z,22.63
2019-01-26T01:11:57.113Z,22.87
2019-01-26T01:14:28.288Z,22.60
2019-01-26T01:16:59.401Z,22.80
2019-01-26T01:19:30.617Z,20.57
2019-01-26T01:22:02.461Z,21.48
2019-01-26T01:24:33.906Z,22.37
2019-01-26T01:27:04.989Z,21.90
2019-01-26T01:29:36.122Z,21.73
2019-01-26T01:32:07.239Z,22.02
2019-01-26T01:34:38.381Z,21.12
2019-01-26T01:37:09.522Z,21.43
2019-01-26T01:39:41.433Z,21.77
2019-01-26T01:42:12.899Z,21.73
2019-01-26T01:44:44.031Z,18.97
2019-01-26T01:47:15.121Z,19.30
2019-01-26T01:49:46.186Z,20.17
2019-01-26T01:52:19.303Z,19.27
2019-01-26T01:54:50.095Z,19.87
2019-01-26T01:57:21.190Z,19.23
2019-01-26T01:59:52.664Z,20.07
2019-01-26T02:02:24.295Z,18.33
2019-01-26T02:04:55.679Z,17.87
2019-01-26T02:07:27.202Z,17.97
2019-01-26T02:09:59.236Z,18.37
2019-01-26T02:12:30.325Z,19.33
2019-01-26T02:15:01.827Z,18.00
2019-01-26T02:17:32.934Z,20.07
2019-01-26T02:20:04.051Z,18.27
2019-01-26T02:22:35.271Z,18.42
2019-01-26T02:25:06.519Z,17.27
2019-01-26T02:27:38.221Z,19.67
2019-01-26T02:30:12.570Z,19.27
2019-01-26T02:32:44.107Z,19.85
2019-01-26T02:35:16.079Z,18.92
2019-01-26T02:37:47.202Z,17.20
2019-01-26T02:40:18.427Z,18.80
2019-01-26T02:42:49.562Z,19.20
2019-01-26T02:45:20.738Z,18.48
2019-01-26T02:47:51.831Z,18.90
2019-01-26T02:50:22.924Z,18.75
2019-01-26T02:52:54.050Z,18.67
2019-01-26T02:55:25.206Z,20.00
2019-01-26T02:57:56.295Z,19.10
2019-01-26T03:00:27.382Z,18.23
2019-01-26T03:02:58.584Z,19.70
2019-01-26T03:05:29.683Z,19.70
2019-01-26T03:08:01.168Z,19.80
2019-01-26T03:10:32.348Z,19.80
2019-01-26T03:13:03.438Z,19.27
2019-01-26T03:15:34.897Z,19.80
2019-01-26T03:18:06.311Z,20.40
2019-01-26T03:20:37.424Z,21.52
2019-01-26T03:23:08.831Z,21.17
2019-01-26T03:25:39.897Z,21.03
2019-01-26T03:28:11.041Z,21.77
2019-01-26T03:30:42.225Z,22.97
2019-01-26T03:33:13.312Z,25.03
2019-01-26T03:35:44.730Z,23.10
2019-01-26T03:38:15.898Z,22.50
2019-01-26T03:40:47.022Z,27.50
2019-01-26T03:43:18.364Z,24.32
2019-01-26T03:45:49.420Z,25.70
2019-01-26T03:48:20.499Z,25.40
2019-01-26T03:50:51.865Z,26.70
2019-01-26T03:53:22.903Z,26.03
2019-01-26T03:55:53.983Z,25.77
2019-01-26T03:58:24.980Z,26.90
2019-01-26T04:00:56.079Z,24.97
2019-01-26T04:03:27.145Z,27.27
2019-01-26T04:05:59.351Z,26.90
2019-01-26T04:08:30.480Z,28.07
2019-01-26T04:11:01.513Z,28.30
2019-01-26T04:13:32.836Z,28.30
2019-01-26T04:16:05.489Z,30.40
2019-01-26T04:18:36.480Z,29.20
2019-01-26T04:21:07.480Z,29.13
2019-01-26T04:23:38.554Z,30.47
2019-01-26T04:26:09.694Z,27.47
2019-01-26T04:28:41.105Z,29.73
2019-01-26T04:31:12.805Z,27.00
2019-01-26T04:33:43.839Z,30.35
2019-01-26T04:36:14.902Z,29.80
2019-01-26T04:38:46.036Z,29.00
2019-01-26T04:41:17.082Z,28.00
2019-01-26T04:43:48.486Z,27.87
2019-01-26T04:46:19.551Z,32.00
2019-01-26T04:48:50.554Z,29.87
2019-01-26T04:51:21.574Z,31.57
2019-01-26T04:53:52.960Z,31.37
2019-01-26T04:56:24.026Z,31.48
2019-01-26T04:58:55.420Z,32.07
2019-01-26T05:01:29.187Z,31.70
2019-01-26T05:04:00.201Z,31.80
2019-01-26T05:06:31.248Z,31.73
2019-01-26T05:09:05.233Z,32.03
2019-01-26T05:11:37.392Z,33.16
2019-01-26T05:14:08.447Z,33.30
2019-01-26T05:16:39.562Z,32.83
2019-01-26T05:19:11.070Z,31.83
2019-01-26T05:21:42.718Z,32.90
2019-01-26T05:24:13.844Z,30.13
2019-01-26T05:26:45.168Z,31.15
2019-01-26T05:29:16.602Z,30.85
2019-01-26T05:31:48.042Z,30.50
2019-01-26T05:34:19.084Z,31.15
2019-01-26T05:36:50.505Z,28.90
2019-01-26T05:39:22.099Z,29.10
2019-01-26T05:41:53.143Z,29.30
2019-01-26T05:44:24.542Z,29.75
2019-01-26T05:46:56.186Z,27.63
2019-01-26T05:49:29.959Z,28.10
2019-01-26T05:52:00.997Z,30.63
2019-01-26T05:54:32.438Z,28.83
2019-01-26T05:57:03.806Z,26.47
2019-01-26T05:59:35.172Z,28.07
2019-01-26T06:02:06.234Z,27.13
2019-01-26T06:04:37.258Z,28.17
2019-01-26T06:07:08.312Z,28.30
2019-01-26T06:09:39.707Z,28.13
2019-01-26T06:12:11.048Z,26.80
2019-01-26T06:14:42.110Z,29.30
2019-01-26T06:17:13.179Z,27.83
2019-01-26T06:19:44.269Z,29.13
2019-01-26T06:22:15.304Z,27.83
2019-01-26T06:24:46.720Z,28.80
2019-01-26T06:27:18.781Z,27.85
2019-01-26T06:29:49.793Z,26.83
2019-01-26T06:32:22.782Z,27.17
2019-01-26T06:34:54.116Z,25.68
2019-01-26T06:37:25.474Z,26.57
2019-01-26T06:39:56.908Z,25.87
2019-01-26T06:42:31.332Z,25.00
2019-01-26T06:45:02.971Z,25.97
2019-01-26T06:47:37.114Z,25.00
2019-01-26T06:50:10.830Z,24.72
2019-01-26T06:52:41.822Z,23.27
2019-01-26T06:55:13.178Z,22.73
2019-01-26T06:57:44.182Z,24.07
2019-01-26T07:00:18.274Z,21.53
2019-01-26T07:02:49.391Z,22.13
2019-01-26T07:05:45.726Z,21.87
2019-01-26T07:08:22.859Z,20.40
2019-01-26T07:10:54.012Z,21.20
2019-01-26T07:13:25.916Z,21.02
2019-01-26T07:15:59.568Z,21.20
2019-01-26T07:18:33.471Z,22.17
2019-01-26T07:21:04.519Z,21.33
2019-01-26T07:23:35.947Z,22.85
2019-01-26T07:26:06.988Z,22.27
2019-01-26T07:28:38.005Z,22.97
2019-01-26T07:31:09.088Z,24.93
2019-01-26T07:33:43.325Z,24.10
2019-01-26T07:36:14.700Z,24.90
2019-01-26T07:38:46.374Z,25.20
2019-01-26T07:41:17.705Z,19.33
2019-01-26T07:43:48.682Z,18.40
2019-01-26T07:46:20.217Z,19.40
2019-01-26T07:48:51.243Z,18.10
2019-01-26T07:51:23.165Z,18.63
2019-01-26T07:53:54.945Z,19.77
2019-01-26T07:56:26.614Z,18.33
2019-01-26T07:58:58.903Z,19.40
2019-01-26T08:01:31.414Z,19.60
2019-01-26T08:04:02.435Z,21.33
2019-01-26T08:06:33.782Z,18.70
2019-01-26T08:09:07.274Z,17.57
2019-01-26T08:11:38.343Z,19.80
2019-01-26T08:14:12.602Z,19.40
2019-01-26T08:16:44.116Z,18.70
2019-01-26T08:19:15.146Z,17.77
2019-01-26T08:21:46.484Z,16.20
2019-01-26T08:24:18.196Z,15.27
2019-01-26T08:26:49.297Z,17.27
2019-01-26T08:29:20.273Z,16.67
2019-01-26T08:31:51.356Z,17.30
2019-01-26T08:34:22.412Z,18.02
2019-01-26T08:36:53.785Z,17.93
2019-01-26T08:39:24.816Z,17.93
2019-01-26T08:41:56.153Z,16.87
2019-01-26T08:44:27.849Z,16.87
2019-01-26T08:46:58.886Z,15.95
2019-01-26T08:49:29.942Z,15.27
2019-01-26T08:52:00.955Z,13.73
2019-01-26T08:54:32.203Z,13.83
2019-01-26T08:57:03.211Z,14.47
2019-01-26T08:59:34.214Z,15.30
2019-01-26T09:02:32.990Z,15.38
2019-01-26T09:05:04.863Z,14.50
2019-01-26T09:07:36.211Z,15.33
2019-01-26T09:10:08.810Z,17.00
2019-01-26T09:12:40.440Z,13.33
2019-01-26T09:15:11.855Z,12.67
2019-01-26T09:17:42.959Z,12.73
2019-01-26T09:20:17.081Z,13.13
2019-01-26T09:22:48.127Z,14.07
2019-01-26T09:25:19.382Z,14.30
2019-01-26T09:27:50.604Z,14.93
2019-01-26T09:30:21.679Z,11.60
2019-01-26T09:32:52.723Z,13.13
2019-01-26T09:35:24.049Z,14.90
2019-01-26T09:37:55.087Z,19.63
2019-01-26T09:40:26.157Z,17.57
2019-01-26T09:42:57.165Z,18.57
2019-01-26T09:45:28.217Z,18.93
2019-01-26T09:47:59.266Z,13.67
2019-01-26T09:50:30.894Z,16.73
2019-01-26T09:53:03.750Z,21.67
2019-01-26T09:55:34.757Z,15.20
2019-01-26T09:58:05.890Z,13.20
2019-01-26T10:00:37.227Z,16.63
2019-01-26T10:03:08.499Z,13.10
2019-01-26T10:05:39.823Z,12.20
2019-01-26T10:08:14.143Z,20.57
2019-01-26T10:10:45.877Z,19.62
2019-01-26T10:13:17.214Z,16.60
2019-01-26T10:15:48.545Z,19.40
2019-01-26T10:18:19.640Z,16.70
2019-01-26T10:20:50.640Z,14.13
2019-01-26T10:23:22.178Z,10.37
2019-01-26T10:25:53.261Z,11.38
2019-01-26T10:28:25.016Z,12.90
2019-01-26T10:31:01.268Z,10.23
2019-01-26T10:33:33.761Z,10.07
2019-01-26T10:36:23.668Z,10.03
2019-01-26T10:39:01.357Z,10.17
2019-01-26T10:41:44.642Z,10.47
2019-01-26T10:44:34.463Z,10.20
2019-01-26T10:47:05.592Z,10.57
2019-01-26T10:49:36.590Z,10.37
2019-01-26T10:52:07.783Z,12.63
2019-01-26T10:54:39.122Z,14.57
2019-01-26T10:57:10.252Z,13.37
2019-01-26T10:59:41.651Z,14.40
2019-01-26T11:02:13.344Z,11.23
2019-01-26T11:04:46.662Z,10.23
2019-01-26T11:07:18.158Z,9.70
2019-01-26T11:09:49.152Z,12.73
2019-01-26T11:12:20.155Z,14.25
2019-01-26T11:14:51.560Z,13.90
2019-01-26T11:17:22.875Z,10.30
2019-01-26T11:19:54.542Z,10.13
2019-01-26T11:22:25.592Z,8.90
2019-01-26T11:24:58.334Z,9.67
2019-01-26T11:27:29.424Z,9.55
2019-01-26T11:30:01.445Z,9.80
2019-01-26T11:32:32.786Z,8.50
2019-01-26T11:35:04.221Z,8.90
2019-01-26T11:37:35.275Z,8.33
2019-01-26T11:40:19.837Z,9.00
2019-01-26T11:42:51.189Z,8.50
2019-01-26T11:45:36.323Z,8.50
2019-01-26T11:48:12.359Z,8.23
2019-01-26T11:50:46.678Z,8.00
2019-01-26T11:53:18.191Z,7.53
2019-01-26T11:55:54.983Z,7.50
2019-01-26T11:58:26.367Z,7.80
2019-01-26T12:01:25.539Z,8.00
2019-01-26T12:04:05.572Z,7.63
2019-01-26T12:06:50.866Z,9.30
2019-01-26T12:09:21.909Z,6.83
2019-01-26T12:11:53.662Z,7.77
2019-01-26T12:14:25.089Z,8.43
2019-01-26T12:16:56.441Z,7.97
2019-01-26T12:19:28.382Z,8.97
2019-01-26T12:21:59.429Z,8.90
2019-01-26T12:24:32.665Z,8.58
2019-01-26T12:27:03.680Z,8.73
2019-01-26T12:29:35.081Z,9.13
2019-01-26T12:32:06.453Z,9.00
2019-01-26T12:34:37.455Z,8.80
2019-01-26T12:37:08.510Z,9.17
2019-01-26T12:39:42.270Z,10.08
2019-01-26T12:42:14.047Z,10.20
2019-01-26T12:44:45.110Z,10.68
2019-01-26T12:47:17.127Z,10.77
2019-01-26T12:49:48.255Z,11.03
2019-01-26T12:52:19.387Z,10.83
2019-01-26T12:54:50.747Z,10.83
2019-01-26T12:57:22.151Z,10.83
2019-01-26T12:59:53.468Z,10.90
2019-01-26T13:02:24.981Z,10.60
2019-01-26T13:04:56.004Z,10.37
2019-01-26T13:07:27.189Z,9.47
2019-01-26T13:09:58.490Z,8.80
2019-01-26T13:12:29.918Z,9.00
2019-01-26T13:15:01.437Z,9.17
2019-01-26T13:17:32.529Z,8.57
2019-01-26T13:20:03.538Z,9.17
2019-01-26T13:22:34.626Z,8.83
2019-01-26T13:25:07.046Z,8.33
2019-01-26T13:27:38.726Z,7.30
2019-01-26T13:30:15.128Z,8.83
2019-01-26T13:32:47.279Z,8.23
2019-01-26T13:35:18.663Z,9.70
2019-01-26T13:37:49.744Z,8.60
2019-01-26T13:40:21.959Z,10.93
2019-01-26T13:42:53.020Z,11.00
2019-01-26T13:45:24.356Z,10.70
2019-01-26T13:47:55.416Z,11.77
2019-01-26T13:50:26.436Z,10.90
2019-01-26T13:52:57.729Z,12.57
2019-01-26T13:55:29.172Z,11.53
2019-01-26T13:58:01.146Z,10.78
2019-01-26T14:00:32.857Z,11.23
2019-01-26T14:03:04.206Z,11.35
2019-01-26T14:05:35.577Z,11.10
2019-01-26T14:08:06.677Z,11.50
2019-01-26T14:10:37.697Z,11.70
2019-01-26T14:13:08.748Z,11.53
2019-01-26T14:15:39.802Z,11.63
2019-01-26T14:18:12.670Z,10.37
2019-01-26T14:20:44.394Z,10.65
2019-01-26T14:23:17.158Z,11.17
2019-01-26T14:25:48.178Z,10.90
2019-01-26T14:28:19.238Z,11.63
2019-01-26T14:30:58.814Z,10.73
2019-01-26T14:33:29.852Z,10.57
2019-01-26T14:36:02.440Z,10.13
2019-01-26T14:38:35.307Z,9.97
2019-01-26T14:41:06.791Z,9.67
2019-01-26T14:43:37.839Z,9.47
2019-01-26T14:46:08.897Z,9.85
2019-01-26T14:48:39.889Z,8.93
2019-01-26T14:51:11.232Z,9.27
2019-01-26T14:53:47.641Z,8.87
2019-01-26T14:56:15.272Z,8.58
2019-01-26T14:58:46.300Z,8.60
2019-01-26T15:01:17.641Z,8.07
2019-01-26T15:03:48.657Z,8.50
2019-01-26T15:06:20.058Z,8.68
2019-01-26T15:08:51.125Z,8.77
2019-01-26T15:11:23.721Z,8.53
2019-01-26T15:13:54.745Z,8.77
2019-01-26T15:16:25.809Z,8.90
2019-01-26T15:18:56.877Z,8.45
2019-01-26T15:21:27.898Z,9.17
2019-01-26T15:23:59.290Z,8.70
2019-01-26T15:26:30.330Z,10.27
2019-01-26T15:29:01.379Z,10.53
2019-01-26T15:31:32.744Z,10.30
2019-01-26T15:34:03.772Z,10.50
2019-01-26T15:36:37.948Z,9.93
2019-01-26T15:39:10.135Z,10.87
2019-01-26T15:41:41.223Z,10.13
2019-01-26T15:44:12.707Z,9.83
2019-01-26T15:46:43.832Z,10.07
2019-01-26T15:49:14.905Z,11.97
2019-01-26T15:51:46.056Z,10.30
2019-01-26T15:54:17.469Z,10.42
2019-01-26T15:56:51.317Z,10.03
2019-01-26T15:59:23.929Z,9.30
2019-01-26T16:01:54.989Z,9.50
2019-01-26T16:04:26.006Z,7.87
2019-01-26T16:06:57.017Z,8.23
2019-01-26T16:09:28.738Z,8.77
2019-01-26T16:11:59.758Z,8.27
2019-01-26T16:14:30.870Z,8.53
2019-01-26T16:17:01.965Z,7.57
2019-01-26T16:19:33.326Z,7.13
2019-01-26T16:22:04.690Z,9.25
2019-01-26T16:24:36.075Z,10.68
2019-01-26T16:27:07.394Z,8.67
2019-01-26T16:29:39.004Z,8.40
2019-01-26T16:32:10.159Z,10.07
2019-01-26T16:34:42.980Z,10.00
2019-01-26T16:37:14.330Z,10.10
2019-01-26T16:39:46.449Z,10.07
2019-01-26T16:42:17.440Z,10.37
2019-01-26T16:44:48.365Z,9.93
2019-01-26T16:47:19.465Z,11.07
2019-01-26T16:49:51.583Z,10.45
2019-01-26T16:52:22.631Z,11.13
2019-01-26T16:54:56.269Z,12.40
2019-01-26T16:57:27.328Z,12.27
2019-01-26T16:59:58.365Z,13.62
2019-01-26T17:02:29.436Z,14.30
2019-01-26T17:05:01.109Z,13.97
2019-01-26T17:07:32.477Z,13.13
2019-01-26T17:10:03.585Z,14.17
2019-01-26T17:12:34.654Z,12.93
2019-01-26T17:15:09.701Z,15.10
2019-01-26T17:17:40.821Z,15.93
2019-01-26T17:20:22.075Z,14.67
2019-01-26T17:22:53.722Z,13.93
2019-01-26T17:25:24.942Z,17.60
2019-01-26T17:27:56.913Z,17.37
2019-01-26T17:30:37.575Z,16.53
2019-01-26T17:33:08.775Z,16.57
2019-01-26T17:35:40.008Z,17.25
2019-01-26T17:38:11.019Z,14.53
2019-01-26T17:40:42.376Z,13.90
2019-01-26T17:43:13.463Z,15.13
2019-01-26T17:45:44.484Z,15.10
2019-01-26T17:48:15.580Z,14.80
2019-01-26T17:50:46.904Z,14.80
2019-01-26T17:53:18.105Z,14.57
2019-01-26T17:55:52.248Z,14.03
2019-01-26T17:58:26.038Z,15.27
2019-01-26T18:00:58.624Z,13.60
2019-01-26T18:03:30.422Z,13.55
2019-01-26T18:06:01.518Z,12.97
2019-01-26T18:08:32.558Z,14.17
2019-01-26T18:11:03.653Z,13.50
2019-01-26T18:13:34.663Z,13.37
2019-01-26T18:16:05.666Z,13.67
2019-01-26T18:18:37.123Z,14.25
2019-01-26T18:21:08.181Z,15.20
2019-01-26T18:23:39.339Z,13.83
2019-01-26T18:26:10.503Z,15.10
2019-01-26T18:28:41.836Z,15.53
2019-01-26T18:31:12.908Z,16.50
2019-01-26T18:33:43.992Z,16.02
2019-01-26T18:43:03.770Z,21.12
2019-01-26T18:45:27.198Z,18.37
2019-01-26T18:47:58.556Z,19.50
2019-01-26T18:50:32.778Z,20.92
2019-01-26T18:53:06.847Z,19.85
2019-01-26T18:55:38.720Z,20.63
2019-01-26T18:58:10.201Z,20.70
2019-01-26T19:00:50.020Z,22.40
2019-01-26T19:04:06.004Z,21.73
2019-01-26T19:06:36.972Z,21.53
2019-01-26T19:09:11.924Z,21.63
2019-01-26T19:11:42.973Z,23.57
2019-01-26T19:14:14.365Z,25.23
2019-01-26T19:16:47.073Z,25.60
2019-01-26T19:19:18.431Z,24.63
2019-01-26T19:21:49.398Z,25.93
2019-01-26T19:24:20.731Z,25.23
2019-01-26T19:26:52.454Z,23.90
2019-01-26T19:29:23.725Z,24.37
2019-01-26T19:31:54.715Z,25.20
2019-01-26T19:34:25.751Z,23.67
2019-01-26T19:36:57.155Z,22.07
2019-01-26T19:39:28.898Z,23.33
2019-01-26T19:41:59.923Z,24.07
2019-01-26T19:44:30.982Z,22.27
2019-01-26T19:47:02.357Z,22.25
2019-01-26T19:49:33.400Z,22.37
2019-01-26T19:52:05.324Z,22.17
2019-01-26T19:54:36.696Z,21.40
2019-01-26T19:57:07.720Z,21.07
2019-01-26T19:59:38.677Z,19.70
2019-01-26T20:02:10.086Z,20.10
2019-01-26T20:04:41.053Z,20.23
2019-01-26T20:07:12.562Z,19.87
2019-01-26T20:09:43.657Z,19.70
2019-01-26T20:12:14.668Z,19.70
2019-01-26T20:14:46.701Z,19.30
2019-01-26T20:17:18.156Z,19.25
2019-01-26T20:19:49.543Z,20.30
2019-01-26T20:22:20.939Z,18.43
2019-01-26T20:24:52.094Z,18.37
2019-01-26T20:31:24.159Z,18.00
2019-01-26T20:33:55.239Z,17.50
2019-01-26T20:36:26.558Z,18.03
2019-01-26T20:38:57.622Z,18.40
2019-01-26T20:41:28.688Z,17.30
2019-01-26T20:44:00.035Z,17.60
2019-01-26T20:46:31.228Z,16.70
2019-01-26T20:49:03.220Z,16.75
2019-01-26T20:51:34.485Z,16.03
2019-01-26T20:54:05.545Z,15.57
2019-01-26T20:56:37.130Z,16.00
2019-01-26T20:59:08.135Z,16.00
2019-01-26T21:01:39.146Z,16.13
2019-01-26T21:04:10.262Z,13.80
2019-01-26T21:06:42.262Z,14.67
2019-01-26T21:09:13.351Z,14.97
2019-01-26T21:11:44.362Z,14.67
2019-01-26T21:14:15.338Z,15.00
2019-01-26T21:16:46.528Z,13.93
2019-01-26T21:19:17.496Z,12.83
2019-01-26T21:21:48.795Z,13.60
2019-01-26T21:24:20.011Z,12.87
2019-01-26T21:26:51.307Z,14.00
2019-01-26T21:29:22.741Z,14.17
2019-01-26T21:31:53.852Z,13.17
2019-01-26T21:34:24.999Z,12.53
2019-01-26T21:36:56.336Z,12.27
2019-01-26T21:39:27.865Z,12.03
2019-01-26T21:41:58.872Z,11.90
2019-01-26T21:44:29.881Z,11.90
2019-01-26T21:47:01.261Z,11.12
2019-01-26T21:49:32.330Z,10.43
2019-01-26T21:52:03.358Z,10.07
2019-01-26T21:54:34.458Z,9.00
2019-01-26T21:57:05.419Z,10.03
2019-01-26T21:59:36.500Z,9.27
2019-01-26T22:02:07.931Z,10.30
2019-01-26T22:04:39.257Z,9.80
2019-01-26T22:07:10.367Z,9.93
2019-01-26T22:09:41.320Z,9.90
2019-01-26T22:12:12.309Z,8.97
2019-01-26T22:14:43.273Z,8.53
2019-01-26T22:17:15.161Z,9.60
2019-01-26T22:19:46.571Z,8.97
2019-01-26T22:22:17.881Z,8.28
2019-01-26T22:24:49.246Z,8.63
2019-01-26T22:27:20.446Z,8.05
2019-01-26T22:29:51.446Z,9.08
2019-01-26T22:32:22.555Z,8.07
2019-01-26T22:34:53.874Z,7.97
2019-01-26T22:37:25.298Z,8.00
2019-01-26T22:39:56.700Z,7.90
2019-01-26T22:42:28.735Z,8.53
2019-01-26T22:44:59.711Z,7.95
2019-01-26T22:47:30.756Z,8.10
2019-01-26T22:50:01.894Z,8.00
2019-01-26T22:52:32.875Z,7.95
2019-01-26T22:55:04.343Z,7.53
2019-01-26T22:57:35.336Z,7.47
2019-01-26T23:00:11.745Z,7.47
2019-01-26T23:02:42.781Z,7.00
2019-01-26T23:06:25.375Z,8.00
2019-01-26T23:08:57.048Z,8.03
2019-01-26T23:12:09.213Z,7.92
2019-01-26T23:15:51.017Z,8.30
2019-01-26T23:19:21.177Z,8.20
2019-01-26T23:22:44.698Z,8.55
2019-01-26T23:26:01.242Z,8.30
2019-01-26T23:29:41.327Z,7.73
2019-01-26T23:32:12.280Z,7.70
2019-01-26T23:34:43.251Z,6.95
2019-01-26T23:37:14.283Z,6.40
2019-01-26T23:39:45.251Z,6.10
2019-01-26T23:42:16.203Z,5.65
2019-01-26T23:44:47.284Z,6.20
2019-01-26T23:47:18.566Z,5.77
2019-01-26T23:49:49.805Z,5.90
2019-01-26T23:52:20.805Z,5.80
2019-01-26T23:54:51.786Z,5.60
2019-01-26T23:57:24.305Z,5.70
2019-01-26T23:59:57.122Z,5.60
